nws-alerts: Checking more than four warning/county codes can delay the loading of your pages. You should use a cron job to get the data.
EllijayWeather Historical Data
Daily Summary for February 24, 2019 Units:  English    Metric   Both
Daily Weekly Monthly Yearly
  High: Low: Average:
Temperature: 59.0 °F 39.0 °F 51.6 °F
Dew Point: 57.0 °F 20.0 °F 40.9 °F
Humidity: 100% 35% 71%
Wind Speed: 16mph 0mph 1.9mph
Wind Gust: 23mph - -
Wind- - WSW
Pressure: 30.3 in 29.9 in -
Precipitation: 0.200 in    
 
 
Tabular Data for February 24, 2019
Time Temperature Dew Point Pressure Wind Wind Speed Wind Gust Humidity Rainfall Rate (Hourly)
00:04 49.0 °F 49.0 °F 30.0 in NW 1 mph 3 mph 98% 0.040 in
00:09 49.0 °F 48.0 °F 30.0 in Calm   1 mph 98% 0.040 in
00:14 49.0 °F 49.0 °F 30.0 in Calm   1 mph 99% 0.030 in
00:19 49.0 °F 49.0 °F 30.0 in Calm     99% 0.020 in
00:24 49.0 °F 49.0 °F 30.0 in Calm     99% 0.010 in
00:29 50.0 °F 50.0 °F 30.0 in Calm   1 mph 99% 0.010 in
00:34 50.0 °F 50.0 °F 30.0 in SE 2 mph 2 mph 99% 0.010 in
00:39 50.0 °F 50.0 °F 30.0 in NW 2 mph 4 mph 99% 0.000 in
00:44 50.0 °F 50.0 °F 30.0 in East 1 mph 2 mph 100% 0.000 in
00:49 50.0 °F 50.0 °F 29.9 in WSW 3 mph 5 mph 100% 0.000 in
00:54 51.0 °F 50.0 °F 29.9 in ESE 5 mph 5 mph 99% 0.000 in
00:59 51.0 °F 51.0 °F 29.9 in ESE 2 mph 4 mph 100% 0.000 in
01:04 51.0 °F 51.0 °F 29.9 in NNE 4 mph 4 mph 100% 0.000 in
01:09 51.0 °F 51.0 °F 29.9 in East 1 mph 2 mph 100% 0.000 in
01:14 51.0 °F 51.0 °F 29.9 in NE 3 mph 4 mph 99% 0.000 in
01:19 51.0 °F 50.0 °F 29.9 in West 5 mph 5 mph 99% 0.000 in
01:24 51.0 °F 51.0 °F 29.9 in East 3 mph 4 mph 100% 0.010 in
01:29 54.0 °F 54.0 °F 29.9 in ESE 5 mph 5 mph 100% 0.030 in
01:34 55.0 °F 55.0 °F 29.9 in ENE 5 mph 8 mph 100% 0.030 in
01:39 56.0 °F 56.0 °F 29.9 in SSW 3 mph 8 mph 100% 0.040 in
01:44 56.0 °F 56.0 °F 29.9 in ESE 4 mph 4 mph 100% 0.040 in
01:49 56.0 °F 56.0 °F 29.9 in South 4 mph 4 mph 100% 0.040 in
01:54 56.0 °F 56.0 °F 29.9 in ESE 7 mph 7 mph 100% 0.040 in
01:59 57.0 °F 57.0 °F 29.9 in ESE 8 mph 8 mph 100% 0.040 in
02:04 57.0 °F 57.0 °F 29.9 in SE 6 mph 6 mph 100% 0.040 in
02:09 57.0 °F 57.0 °F 29.9 in ESE 6 mph 6 mph 100% 0.040 in
02:14 57.0 °F 56.0 °F 29.9 in ESE 4 mph 4 mph 99% 0.040 in
02:19 57.0 °F 56.0 °F 29.9 in ESE 6 mph 9 mph 98% 0.040 in
02:24 57.0 °F 56.0 °F 29.9 in ESE 1 mph 6 mph 98% 0.040 in
02:29 57.0 °F 56.0 °F 29.9 in SSE 6 mph 6 mph 98% 0.030 in
02:34 56.0 °F 56.0 °F 29.9 in ESE 4 mph 4 mph 98% 0.010 in
02:39 56.0 °F 56.0 °F 29.9 in Calm   2 mph 98% 0.010 in
02:44 56.0 °F 55.0 °F 29.9 in South 1 mph 3 mph 98% 0.000 in
02:49 56.0 °F 55.0 °F 29.9 in SE 4 mph 5 mph 98% 0.010 in
02:54 56.0 °F 55.0 °F 29.9 in ESE 4 mph 6 mph 98% 0.010 in
02:59 56.0 °F 56.0 °F 29.9 in SE 6 mph 6 mph 98% 0.010 in
03:04 57.0 °F 56.0 °F 29.9 in SE 2 mph 5 mph 98% 0.010 in
03:09 57.0 °F 56.0 °F 29.9 in South 3 mph 5 mph 98% 0.010 in
03:14 57.0 °F 56.0 °F 29.9 in SE 7 mph 7 mph 98% 0.010 in
03:19 57.0 °F 56.0 °F 29.9 in ESE 4 mph 7 mph 98% 0.010 in
03:24 57.0 °F 57.0 °F 29.9 in ENE 2 mph 3 mph 98% 0.010 in
03:29 57.0 °F 56.0 °F 29.9 in ESE 4 mph 5 mph 98% 0.020 in
03:34 57.0 °F 56.0 °F 29.9 in SSE 1 mph 4 mph 98% 0.020 in
03:39 57.0 °F 56.0 °F 29.9 in ESE 4 mph 6 mph 97% 0.020 in
03:44 57.0 °F 56.0 °F 29.9 in ESE 2 mph 6 mph 97% 0.020 in
03:49 56.0 °F 56.0 °F 29.9 in ESE 1 mph 5 mph 98% 0.020 in
03:54 56.0 °F 56.0 °F 29.9 in WNW 5 mph 6 mph 98% 0.050 in
03:59 56.0 °F 55.0 °F 29.9 in WNW 4 mph 7 mph 97% 0.080 in
04:04 55.0 °F 54.0 °F 29.9 in WNW 3 mph 7 mph 97% 0.120 in
04:09 54.0 °F 53.0 °F 29.9 in West 2 mph 4 mph 97% 0.130 in
04:14 54.0 °F 53.0 °F 29.9 in SSW 1 mph 2 mph 97% 0.140 in
04:19 54.0 °F 54.0 °F 29.9 in Calm     100% 0.140 in
04:24 53.0 °F 53.0 °F 29.9 in Calm     98% 0.140 in
04:29 53.0 °F 53.0 °F 29.9 in Calm     98% 0.140 in
04:34 53.0 °F 53.0 °F 29.9 in Calm     98% 0.130 in
04:39 53.0 °F 53.0 °F 29.9 in Calm     98% 0.130 in
04:44 53.0 °F 52.0 °F 29.9 in Calm     98% 0.130 in
04:49 53.0 °F 52.0 °F 29.9 in Calm     98% 0.130 in
04:54 53.0 °F 52.0 °F 29.9 in SSW 1 mph 1 mph 98% 0.120 in
04:59 53.0 °F 52.0 °F 29.9 in SSW 1 mph 2 mph 98% 0.090 in
05:04 53.0 °F 52.0 °F 29.9 in Calm     98% 0.060 in
05:09 52.0 °F 52.0 °F 29.9 in Calm     99% 0.010 in
05:14 52.0 °F 52.0 °F 29.9 in Calm     99% 0.000 in
05:19 52.0 °F 52.0 °F 29.9 in Calm   1 mph 99% 0.000 in
05:24 52.0 °F 52.0 °F 29.9 in Calm     99% 0.010 in
05:29 52.0 °F 52.0 °F 29.9 in Calm     99% 0.010 in
05:34 52.0 °F 52.0 °F 29.9 in Calm     99% 0.010 in
05:39 52.0 °F 52.0 °F 29.9 in Calm     99% 0.010 in
05:44 52.0 °F 52.0 °F 29.9 in Calm     99% 0.010 in
05:49 52.0 °F 52.0 °F 29.9 in Calm     99% 0.010 in
05:54 52.0 °F 52.0 °F 29.9 in Calm     99% 0.010 in
05:59 52.0 °F 52.0 °F 29.9 in Calm     99% 0.010 in
06:04 52.0 °F 52.0 °F 29.9 in Calm     99% 0.010 in
06:09 52.0 °F 51.0 °F 29.9 in Calm     99% 0.010 in
06:14 51.0 °F 51.0 °F 29.9 in Calm     99% 0.010 in
06:19 51.0 °F 51.0 °F 29.9 in Calm     98% 0.010 in
06:24 51.0 °F 51.0 °F 29.9 in Calm     99% 0.010 in
06:29 51.0 °F 51.0 °F 29.9 in Calm     99% 0.000 in
06:34 51.0 °F 51.0 °F 29.9 in Calm     99% 0.000 in
06:39 51.0 °F 50.0 °F 29.9 in Calm     98% 0.000 in
06:44 51.0 °F 50.0 °F 29.9 in Calm     98% 0.000 in
06:49 50.0 °F 50.0 °F 29.9 in Calm     98% 0.000 in
06:54 50.0 °F 50.0 °F 29.9 in Calm     99% 0.000 in
06:59 50.0 °F 50.0 °F 29.9 in Calm     99% 0.000 in
07:04 50.0 °F 50.0 °F 29.9 in Calm     99% 0.000 in
07:09 50.0 °F 50.0 °F 29.9 in Calm     99% 0.000 in
07:14 50.0 °F 50.0 °F 29.9 in Calm     99% 0.000 in
07:19 50.0 °F 50.0 °F 29.9 in Calm     99% 0.000 in
07:24 50.0 °F 50.0 °F 29.9 in Calm     99% 0.000 in
07:29 50.0 °F 50.0 °F 29.9 in Calm     99% 0.000 in
07:34 50.0 °F 49.0 °F 29.9 in Calm     99% 0.000 in
07:39 50.0 °F 49.0 °F 29.9 in Calm     99% 0.000 in
07:44 50.0 °F 49.0 °F 29.9 in Calm     99% 0.000 in
07:49 49.0 °F 49.0 °F 29.9 in Calm     99% 0.000 in
07:54 49.0 °F 49.0 °F 29.9 in Calm     99% 0.000 in
07:59 49.0 °F 49.0 °F 29.9 in Calm     99% 0.000 in
08:04 49.0 °F 49.0 °F 29.9 in Calm     99% 0.000 in
08:09 49.0 °F 49.0 °F 29.9 in Calm     99% 0.000 in
08:14 49.0 °F 49.0 °F 29.9 in Calm     99% 0.000 in
08:19 49.0 °F 49.0 °F 29.9 in Calm     99% 0.000 in
08:24 50.0 °F 49.0 °F 29.9 in Calm     99% 0.000 in
08:29 50.0 °F 50.0 °F 29.9 in Calm     100% 0.000 in
08:34 50.0 °F 50.0 °F 29.9 in Calm     100% 0.000 in
08:39 51.0 °F 51.0 °F 30.0 in ENE 1 mph 2 mph 100% 0.000 in
08:44 51.0 °F 51.0 °F 30.0 in Calm   2 mph 100% 0.000 in
08:49 51.0 °F 51.0 °F 30.0 in Calm   4 mph 100% 0.000 in
08:54 51.0 °F 51.0 °F 30.0 in Calm   1 mph 99% 0.000 in
08:59 51.0 °F 50.0 °F 30.0 in NNW 4 mph 4 mph 97% 0.000 in
09:04 51.0 °F 50.0 °F 30.0 in Calm   4 mph 95% 0.000 in
09:09 51.0 °F 50.0 °F 30.0 in NW 2 mph 5 mph 95% 0.000 in
09:14 52.0 °F 50.0 °F 30.0 in NNW 1 mph 3 mph 93% 0.000 in
09:19 52.0 °F 50.0 °F 30.0 in Calm   2 mph 93% 0.000 in
09:24 52.0 °F 50.0 °F 30.0 in WNW 2 mph 7 mph 94% 0.000 in
09:29 52.0 °F 50.0 °F 30.0 in WNW 2 mph 2 mph 91% 0.000 in
09:34 52.0 °F 50.0 °F 30.0 in NW 2 mph 3 mph 91% 0.000 in
09:39 52.0 °F 49.0 °F 30.0 in NW 6 mph 6 mph 88% 0.000 in
09:44 53.0 °F 49.0 °F 30.0 in East 4 mph 6 mph 88% 0.000 in
09:49 53.0 °F 50.0 °F 30.0 in North 1 mph 4 mph 88% 0.000 in
09:54 53.0 °F 50.0 °F 30.0 in NNW 1 mph 3 mph 89% 0.000 in
09:59 53.0 °F 48.0 °F 30.0 in WNW 3 mph 6 mph 83% 0.000 in
10:04 54.0 °F 49.0 °F 30.0 in NW 3 mph 6 mph 84% 0.000 in
10:09 54.0 °F 50.0 °F 30.0 in West 4 mph 6 mph 86% 0.000 in
10:14 55.0 °F 50.0 °F 30.0 in NW 1 mph 4 mph 83% 0.000 in
10:19 55.0 °F 50.0 °F 30.0 in North 5 mph 9 mph 81% 0.000 in
10:24 56.0 °F 49.0 °F 30.0 in North 1 mph 9 mph 80% 0.000 in
10:29 55.0 °F 49.0 °F 30.0 in NW 4 mph 7 mph 80% 0.000 in
10:34 55.0 °F 48.0 °F 30.0 in NW 5 mph 7 mph 78% 0.000 in
10:39 55.0 °F 49.0 °F 30.0 in Calm   4 mph 80% 0.000 in
10:44 56.0 °F 50.0 °F 30.0 in NW 3 mph 4 mph 81% 0.000 in
10:49 56.0 °F 49.0 °F 30.0 in WNW 7 mph 7 mph 77% 0.000 in
10:54 55.0 °F 48.0 °F 30.0 in WNW 3 mph 3 mph 76% 0.000 in
10:59 55.0 °F 48.0 °F 30.0 in WNW 6 mph 6 mph 77% 0.000 in
11:04 55.0 °F 48.0 °F 30.0 in WNW 5 mph 6 mph 76% 0.000 in
11:09 55.0 °F 48.0 °F 30.0 in West 9 mph 12 mph 75% 0.000 in
11:14 56.0 °F 48.0 °F 30.0 in South 6 mph 12 mph 75% 0.000 in
11:19 56.0 °F 48.0 °F 30.0 in NNW 3 mph 5 mph 73% 0.000 in
11:24 57.0 °F 47.0 °F 30.0 in West 11 mph 17 mph 71% 0.000 in
11:29 57.0 °F 46.0 °F 30.0 in NNW 5 mph 10 mph 68% 0.000 in
11:34 57.0 °F 45.0 °F 30.0 in West 4 mph 10 mph 65% 0.000 in
11:39 56.0 °F 45.0 °F 30.0 in WNW 6 mph 9 mph 66% 0.000 in
11:44 57.0 °F 46.0 °F 30.0 in WSW 5 mph 7 mph 68% 0.000 in
11:49 57.0 °F 46.0 °F 30.0 in West 4 mph 9 mph 67% 0.000 in
11:54 57.0 °F 45.0 °F 30.0 in South 5 mph 9 mph 64% 0.000 in
11:59 57.0 °F 45.0 °F 30.0 in West 3 mph 9 mph 64% 0.000 in
12:04 57.0 °F 46.0 °F 30.0 in NW 6 mph 11 mph 65% 0.000 in
12:09 58.0 °F 45.0 °F 30.0 in SE 4 mph 11 mph 63% 0.000 in
12:14 58.0 °F 45.0 °F 30.1 in ESE 1 mph 4 mph 63% 0.000 in
12:19 58.0 °F 45.0 °F 30.1 in NW 3 mph 6 mph 61% 0.000 in
12:24 58.0 °F 44.0 °F 30.1 in West 5 mph 9 mph 60% 0.000 in
12:29 59.0 °F 44.0 °F 30.1 in WSW 4 mph 8 mph 59% 0.000 in
12:34 59.0 °F 44.0 °F 30.1 in WNW 2 mph 6 mph 58% 0.000 in
12:39 59.0 °F 43.0 °F 30.1 in WNW 5 mph 9 mph 56% 0.000 in
12:44 59.0 °F 43.0 °F 30.1 in NW 4 mph 8 mph 57% 0.000 in
12:49 59.0 °F 43.0 °F 30.1 in NW 5 mph 7 mph 56% 0.000 in
12:54 59.0 °F 44.0 °F 30.1 in SW 3 mph 7 mph 59% 0.000 in
12:59 58.0 °F 44.0 °F 30.1 in WNW 6 mph 9 mph 59% 0.000 in
13:04 59.0 °F 44.0 °F 30.1 in ENE 8 mph 8 mph 59% 0.000 in
13:09 59.0 °F 42.0 °F 30.1 in NW 7 mph 10 mph 55% 0.000 in
13:14 59.0 °F 41.0 °F 30.1 in WNW 16 mph 21 mph 53% 0.000 in
13:19 59.0 °F 39.0 °F 30.1 in NNW 6 mph 17 mph 49% 0.000 in
13:24 58.0 °F 39.0 °F 30.1 in NNW 7 mph 14 mph 48% 0.000 in
13:29 58.0 °F 38.0 °F 30.1 in North 7 mph 11 mph 47% 0.000 in
13:34 58.0 °F 39.0 °F 30.1 in NNW 4 mph 13 mph 49% 0.000 in
13:39 58.0 °F 39.0 °F 30.1 in WNW 8 mph 13 mph 50% 0.000 in
13:44 58.0 °F 37.0 °F 30.1 in WNW 12 mph 18 mph 46% 0.000 in
13:49 58.0 °F 34.0 °F 30.1 in NW 7 mph 12 mph 41% 0.000 in
13:54 57.0 °F 33.0 °F 30.1 in NW 9 mph 14 mph 40% 0.000 in
13:59 57.0 °F 33.0 °F 30.1 in WNW 7 mph 18 mph 40% 0.000 in
14:04 57.0 °F 35.0 °F 30.1 in West 12 mph 13 mph 43% 0.000 in
14:09 57.0 °F 34.0 °F 30.1 in NW 10 mph 14 mph 42% 0.000 in
14:14 57.0 °F 35.0 °F 30.1 in WNW 12 mph 14 mph 43% 0.000 in
14:19 57.0 °F 35.0 °F 30.1 in NW 8 mph 23 mph 43% 0.000 in
14:24 57.0 °F 33.0 °F 30.1 in North 11 mph 23 mph 40% 0.000 in
14:29 57.0 °F 33.0 °F 30.1 in NNW 11 mph 17 mph 41% 0.000 in
14:34 57.0 °F 32.0 °F 30.1 in West 4 mph 11 mph 40% 0.000 in
14:39 56.0 °F 33.0 °F 30.1 in Calm   5 mph 42% 0.000 in
14:44 57.0 °F 33.0 °F 30.1 in Calm     41% 0.000 in
14:49 57.0 °F 35.0 °F 30.1 in Calm     44% 0.000 in
14:54 57.0 °F 35.0 °F 30.1 in Calm     45% 0.000 in
14:59 57.0 °F 35.0 °F 30.1 in Calm     45% 0.000 in
15:04 57.0 °F 36.0 °F 30.1 in Calm     46% 0.000 in
15:09 57.0 °F 36.0 °F 30.1 in Calm     47% 0.000 in
15:14 57.0 °F 36.0 °F 30.1 in Calm     46% 0.000 in
15:19 57.0 °F 36.0 °F 30.1 in Calm     46% 0.000 in
15:24 56.0 °F 34.0 °F 30.1 in Calm     43% 0.000 in
15:29 56.0 °F 34.0 °F 30.1 in Calm     43% 0.000 in
15:34 56.0 °F 34.0 °F 30.1 in Calm     45% 0.000 in
15:39 55.0 °F 31.0 °F 30.1 in Calm     39% 0.000 in
15:44 55.0 °F 30.0 °F 30.1 in Calm     38% 0.000 in
15:49 55.0 °F 32.0 °F 30.1 in Calm     41% 0.000 in
15:54 55.0 °F 32.0 °F 30.1 in Calm     42% 0.000 in
15:59 54.0 °F 28.0 °F 30.1 in Calm     37% 0.000 in
16:04 54.0 °F 30.0 °F 30.1 in Calm     39% 0.000 in
16:09 54.0 °F 30.0 °F 30.1 in Calm     39% 0.000 in
16:14 54.0 °F 31.0 °F 30.1 in Calm     41% 0.000 in
16:19 54.0 °F 30.0 °F 30.1 in Calm     40% 0.000 in
16:24 54.0 °F 30.0 °F 30.1 in Calm     41% 0.000 in
16:29 53.0 °F 30.0 °F 30.1 in Calm     41% 0.000 in
16:34 53.0 °F 30.0 °F 30.1 in Calm     40% 0.000 in
16:39 53.0 °F 32.0 °F 30.1 in Calm     44% 0.000 in
16:44 53.0 °F 32.0 °F 30.1 in Calm     45% 0.000 in
16:49 53.0 °F 30.0 °F 30.1 in Calm     41% 0.000 in
16:54 53.0 °F 31.0 °F 30.1 in Calm     42% 0.000 in
16:59 53.0 °F 30.0 °F 30.1 in Calm     41% 0.000 in
17:04 53.0 °F 30.0 °F 30.1 in Calm     41% 0.000 in
17:09 53.0 °F 30.0 °F 30.1 in Calm     41% 0.000 in
17:14 53.0 °F 28.0 °F 30.1 in Calm     38% 0.000 in
17:19 53.0 °F 29.0 °F 30.1 in Calm     39% 0.000 in
17:24 53.0 °F 30.0 °F 30.1 in Calm     41% 0.000 in
17:29 53.0 °F 28.0 °F 30.1 in Calm     39% 0.000 in
17:34 52.0 °F 28.0 °F 30.1 in Calm     39% 0.000 in
17:39 52.0 °F 29.0 °F 30.1 in Calm     41% 0.000 in
17:44 52.0 °F 27.0 °F 30.2 in Calm     38% 0.000 in
17:49 52.0 °F 29.0 °F 30.2 in Calm     42% 0.000 in
17:54 51.0 °F 29.0 °F 30.2 in Calm     42% 0.000 in
17:59 51.0 °F 27.0 °F 30.2 in Calm     39% 0.000 in
18:04 51.0 °F 27.0 °F 30.2 in Calm     39% 0.000 in
18:09 51.0 °F 26.0 °F 30.2 in Calm     37% 0.000 in
18:14 51.0 °F 27.0 °F 30.2 in Calm     40% 0.000 in
18:19 51.0 °F 27.0 °F 30.2 in Calm     40% 0.000 in
18:24 51.0 °F 28.0 °F 30.2 in Calm     41% 0.000 in
18:29 50.0 °F 27.0 °F 30.2 in Calm     40% 0.000 in
18:34 50.0 °F 27.0 °F 30.2 in Calm     41% 0.000 in
18:39 50.0 °F 28.0 °F 30.2 in Calm     42% 0.000 in
18:44 50.0 °F 28.0 °F 30.2 in Calm     43% 0.000 in
18:49 50.0 °F 29.0 °F 30.2 in Calm     45% 0.000 in
18:54 49.0 °F 29.0 °F 30.2 in Calm     45% 0.000 in
18:59 49.0 °F 27.0 °F 30.2 in Calm     42% 0.000 in
19:04 49.0 °F 25.0 °F 30.2 in Calm     39% 0.000 in
19:09 49.0 °F 26.0 °F 30.2 in Calm     41% 0.000 in
19:14 49.0 °F 26.0 °F 30.2 in Calm     41% 0.000 in
19:19 48.0 °F 26.0 °F 30.2 in Calm     41% 0.000 in
19:24 48.0 °F 27.0 °F 30.2 in Calm     44% 0.000 in
19:29 48.0 °F 25.0 °F 30.2 in Calm     40% 0.000 in
19:34 48.0 °F 24.0 °F 30.2 in Calm     40% 0.000 in
19:39 48.0 °F 23.0 °F 30.2 in Calm     37% 0.000 in
19:44 48.0 °F 23.0 °F 30.2 in Calm     38% 0.000 in
19:49 48.0 °F 23.0 °F 30.2 in Calm     37% 0.000 in
19:54 48.0 °F 24.0 °F 30.2 in Calm     39% 0.000 in
19:59 47.0 °F 22.0 °F 30.2 in Calm     37% 0.000 in
20:04 47.0 °F 21.0 °F 30.2 in Calm     36% 0.000 in
20:09 47.0 °F 22.0 °F 30.2 in Calm     37% 0.000 in
20:14 47.0 °F 21.0 °F 30.2 in Calm     35% 0.000 in
20:19 47.0 °F 20.0 °F 30.2 in Calm     35% 0.000 in
20:24 47.0 °F 20.0 °F 30.2 in Calm     35% 0.000 in
20:29 46.0 °F 23.0 °F 30.2 in WNW 5 mph 6 mph 39% 0.000 in
20:34 46.0 °F 24.0 °F 30.2 in NNW 4 mph 4 mph 41% 0.000 in
20:39 46.0 °F 24.0 °F 30.2 in NNW 2 mph 4 mph 43% 0.000 in
20:44 46.0 °F 27.0 °F 30.2 in NW 1 mph 1 mph 48% 0.000 in
20:49 45.0 °F 29.0 °F 30.2 in Calm   1 mph 54% 0.000 in
20:54 45.0 °F 29.0 °F 30.2 in Calm     54% 0.000 in
20:59 44.0 °F 29.0 °F 30.2 in Calm     55% 0.000 in
21:04 43.0 °F 28.0 °F 30.2 in Calm     54% 0.000 in
21:09 43.0 °F 28.0 °F 30.2 in Calm     56% 0.000 in
21:14 42.0 °F 28.0 °F 30.2 in Calm     57% 0.000 in
21:19 42.0 °F 29.0 °F 30.2 in Calm   1 mph 61% 0.000 in
21:24 41.0 °F 28.0 °F 30.2 in Calm     58% 0.000 in
21:29 41.0 °F 27.0 °F 30.2 in NW 1 mph 3 mph 57% 0.000 in
21:34 41.0 °F 28.0 °F 30.3 in Calm     60% 0.000 in
21:39 41.0 °F 29.0 °F 30.3 in Calm     62% 0.000 in
21:44 41.0 °F 29.0 °F 30.3 in Calm     63% 0.000 in
21:49 41.0 °F 28.0 °F 30.3 in Calm   2 mph 60% 0.000 in
21:54 41.0 °F 28.0 °F 30.3 in NNE 1 mph 1 mph 61% 0.000 in
21:59 41.0 °F 28.0 °F 30.3 in Calm     61% 0.000 in
22:04 41.0 °F 28.0 °F 30.3 in Calm     59% 0.000 in
22:09 41.0 °F 27.0 °F 30.3 in NW 2 mph 3 mph 58% 0.000 in
22:14 41.0 °F 27.0 °F 30.3 in Calm   2 mph 57% 0.000 in
22:19 41.0 °F 28.0 °F 30.3 in Calm     59% 0.000 in
22:24 41.0 °F 28.0 °F 30.3 in Calm     59% 0.000 in
22:29 41.0 °F 28.0 °F 30.3 in Calm     60% 0.000 in
22:34 40.0 °F 28.0 °F 30.3 in Calm     62% 0.000 in
22:39 40.0 °F 29.0 °F 30.3 in Calm     65% 0.000 in
22:44 40.0 °F 28.0 °F 30.3 in Calm     64% 0.000 in
22:49 39.0 °F 28.0 °F 30.3 in Calm     63% 0.000 in
22:54 39.0 °F 28.0 °F 30.3 in Calm   2 mph 65% 0.000 in
22:59 39.0 °F 25.0 °F 30.3 in NNW 1 mph 3 mph 57% 0.000 in
23:04 40.0 °F 26.0 °F 30.3 in NNW 4 mph 7 mph 59% 0.000 in
23:09 40.0 °F 26.0 °F 30.3 in NW 5 mph 5 mph 56% 0.000 in
23:14 41.0 °F 26.0 °F 30.3 in Calm   1 mph 57% 0.000 in
23:19 41.0 °F 26.0 °F 30.3 in Calm     57% 0.000 in
23:24 40.0 °F 24.0 °F 30.3 in NW 1 mph 2 mph 51% 0.000 in
23:29 40.0 °F 24.0 °F 30.3 in Calm   2 mph 52% 0.000 in
23:34 40.0 °F 24.0 °F 30.3 in Calm     53% 0.000 in
23:39 40.0 °F 23.0 °F 30.3 in West 1 mph 2 mph 51% 0.000 in
23:44 40.0 °F 27.0 °F 30.3 in Calm   2 mph 60% 0.000 in
23:49 40.0 °F 28.0 °F 30.3 in Calm   1 mph 63% 0.000 in
23:54 39.0 °F 28.0 °F 30.3 in Calm     63% 0.000 in
23:59 39.0 °F 27.0 °F 30.3 in Calm     62% 0.000 in
East Ellijay Weather
Compliments of Weather Underground - 2 mb